createdAt,value
2022-10-05T00:00:02.054Z,963.3100
2022-10-05T00:00:13.227Z,963.2900
2022-10-05T00:00:24.285Z,963.3100
2022-10-05T00:00:35.328Z,963.3100
2022-10-05T00:00:46.508Z,963.3100
2022-10-05T00:00:57.709Z,963.3100
2022-10-05T00:01:08.919Z,963.3100
2022-10-05T00:01:20.268Z,963.3100
2022-10-05T00:01:31.348Z,963.2900
2022-10-05T00:01:42.412Z,963.2900
2022-10-05T00:01:53.544Z,963.2900
2022-10-05T00:02:04.770Z,963.2700
2022-10-05T00:02:15.837Z,963.2900
2022-10-05T00:02:26.879Z,963.2900
2022-10-05T00:02:37.949Z,963.2900
2022-10-05T00:02:49.069Z,963.2900
2022-10-05T00:03:00.268Z,963.2900
2022-10-05T00:03:11.471Z,963.2900
2022-10-05T00:03:22.670Z,963.2700
2022-10-05T00:03:33.707Z,963.2500
2022-10-05T00:03:44.815Z,963.2500
2022-10-05T00:03:55.985Z,963.2500
2022-10-05T00:04:07.226Z,963.2700
2022-10-05T00:04:18.359Z,963.2500
2022-10-05T00:04:29.556Z,963.2500
2022-10-05T00:04:40.785Z,963.2700
2022-10-05T00:04:52.017Z,963.2500
2022-10-05T00:05:03.201Z,963.2500
2022-10-05T00:05:14.486Z,963.2700
2022-10-05T00:05:25.645Z,963.2500
2022-10-05T00:05:36.719Z,963.2700
2022-10-05T00:05:47.776Z,963.2700
2022-10-05T00:05:58.835Z,963.2700
2022-10-05T00:06:10.028Z,963.2300
2022-10-05T00:06:21.246Z,963.2500
2022-10-05T00:06:32.428Z,963.2500
2022-10-05T00:06:43.830Z,963.2300
2022-10-05T00:06:55.198Z,963.2300
2022-10-05T00:07:06.348Z,963.2300
2022-10-05T00:07:17.548Z,963.2300
2022-10-05T00:07:28.748Z,963.2300
2022-10-05T00:07:39.798Z,963.2300
2022-10-05T00:07:50.867Z,963.2300
2022-10-05T00:08:02.033Z,963.2300
2022-10-05T00:08:13.067Z,963.2300
2022-10-05T00:08:24.118Z,963.2300
2022-10-05T00:08:35.307Z,963.2300
2022-10-05T00:08:46.411Z,963.2300
2022-10-05T00:08:57.455Z,963.2300
2022-10-05T00:09:08.589Z,963.2300
2022-10-05T00:09:19.788Z,963.2300
2022-10-05T00:09:30.987Z,963.2100
2022-10-05T00:09:42.199Z,963.2100
2022-10-05T00:09:53.388Z,963.2100
2022-10-05T00:10:04.595Z,963.2100
2022-10-05T00:10:15.789Z,963.2100
2022-10-05T00:10:26.989Z,963.2100
2022-10-05T00:10:38.189Z,963.2300
2022-10-05T00:10:49.245Z,963.2100
2022-10-05T00:11:00.295Z,963.2100
2022-10-05T00:11:11.468Z,963.2100
2022-10-05T00:11:22.671Z,963.2100
2022-10-05T00:11:33.758Z,963.1900
2022-10-05T00:11:44.807Z,963.2100
2022-10-05T00:11:55.868Z,963.2100
2022-10-05T00:12:06.947Z,963.1900
2022-10-05T00:12:18.027Z,963.1900
2022-10-05T00:12:29.237Z,963.2100
2022-10-05T00:12:40.427Z,963.1900
2022-10-05T00:12:51.627Z,963.2100
2022-10-05T00:13:02.838Z,963.1700
2022-10-05T00:13:14.037Z,963.1900
2022-10-05T00:13:25.234Z,963.1900
2022-10-05T00:13:36.436Z,963.1900
2022-10-05T00:13:47.647Z,963.1700
2022-10-05T00:13:58.691Z,963.1900
2022-10-05T00:14:09.766Z,963.1900
2022-10-05T00:14:20.907Z,963.1900
2022-10-05T00:14:32.108Z,963.1700
2022-10-05T00:14:43.320Z,963.1900
2022-10-05T00:14:54.507Z,963.1700
2022-10-05T00:15:05.707Z,963.1900
2022-10-05T00:15:16.926Z,963.1900
2022-10-05T00:15:28.107Z,963.1700
2022-10-05T00:15:39.308Z,963.1900
2022-10-05T00:15:50.510Z,963.1900
2022-10-05T00:16:01.594Z,963.1900
2022-10-05T00:16:12.706Z,963.1700
2022-10-05T00:16:23.872Z,963.1700
2022-10-05T00:16:35.062Z,963.1500
2022-10-05T00:16:46.653Z,963.1500
2022-10-05T00:16:58.168Z,963.1700
2022-10-05T00:17:09.237Z,963.1700
2022-10-05T00:17:20.446Z,963.1500
2022-10-05T00:17:31.628Z,963.1300
2022-10-05T00:17:42.837Z,963.1300
2022-10-05T00:17:53.886Z,963.1300
2022-10-05T00:18:04.935Z,963.1300
2022-10-05T00:18:16.120Z,963.1300
2022-10-05T00:18:27.307Z,963.1500
2022-10-05T00:18:38.535Z,963.1500
2022-10-05T00:18:49.748Z,963.1500
2022-10-05T00:19:00.805Z,963.1300
2022-10-05T00:19:11.878Z,963.1300
2022-10-05T00:19:22.990Z,963.1300
2022-10-05T00:19:34.196Z,963.1300
2022-10-05T00:19:45.307Z,963.1300
2022-10-05T00:19:56.367Z,963.1500
2022-10-05T00:20:07.428Z,963.1500
2022-10-05T00:20:18.488Z,963.1500
2022-10-05T00:20:29.546Z,963.1500
2022-10-05T00:20:40.748Z,963.1100
2022-10-05T00:20:51.968Z,963.1300
2022-10-05T00:21:03.147Z,963.1300
2022-10-05T00:21:14.196Z,963.1300
2022-10-05T00:21:25.238Z,963.1500
2022-10-05T00:21:36.429Z,963.1300
2022-10-05T00:21:47.627Z,963.1300
2022-10-05T00:21:58.828Z,963.1500
2022-10-05T00:22:10.037Z,963.1500
2022-10-05T00:22:21.232Z,963.1300
2022-10-05T00:22:32.439Z,963.1700
2022-10-05T00:22:43.636Z,963.1500
2022-10-05T00:22:54.827Z,963.1700
2022-10-05T00:23:06.038Z,963.1700
2022-10-05T00:23:17.078Z,963.1700
2022-10-05T00:23:28.136Z,963.1700
2022-10-05T00:23:39.307Z,963.1700
2022-10-05T00:23:50.470Z,963.1700
2022-10-05T00:24:01.517Z,963.1700
2022-10-05T00:24:12.590Z,963.1700
2022-10-05T00:24:23.628Z,963.1700
2022-10-05T00:24:34.667Z,963.1900
2022-10-05T00:24:45.901Z,963.1900
2022-10-05T00:24:57.067Z,963.1700
2022-10-05T00:25:08.287Z,963.1700
2022-10-05T00:25:19.475Z,963.1700
2022-10-05T00:25:30.524Z,963.1700
2022-10-05T00:25:41.590Z,963.1700
2022-10-05T00:25:52.751Z,963.1500
2022-10-05T00:26:03.948Z,963.1900
2022-10-05T00:26:15.006Z,963.2100
2022-10-05T00:26:26.057Z,963.2100
2022-10-05T00:26:37.117Z,963.1700
2022-10-05T00:26:49.542Z,963.1700
2022-10-05T00:27:02.879Z,963.1900
2022-10-05T00:27:14.041Z,963.2100
2022-10-05T00:27:25.228Z,963.1900
2022-10-05T00:27:36.428Z,963.1900
2022-10-05T00:27:47.637Z,963.2100
2022-10-05T00:27:58.752Z,963.1900
2022-10-05T00:28:09.827Z,963.1900
2022-10-05T00:28:20.960Z,963.1900
2022-10-05T00:28:32.204Z,963.1900
2022-10-05T00:28:43.307Z,963.1900
2022-10-05T00:28:54.463Z,963.1900
2022-10-05T00:29:05.518Z,963.1900
2022-10-05T00:29:16.589Z,963.1900
2022-10-05T00:29:27.797Z,963.1900
2022-10-05T00:29:38.987Z,963.1900
2022-10-05T00:29:50.190Z,963.1900
2022-10-05T00:30:01.400Z,963.1900
2022-10-05T00:30:12.597Z,963.1900
2022-10-05T00:30:23.787Z,963.1700
2022-10-05T00:30:34.988Z,963.1700
2022-10-05T00:30:46.200Z,963.1700
2022-10-05T00:30:57.391Z,963.1900
2022-10-05T00:31:08.589Z,963.1700
2022-10-05T00:31:19.727Z,963.1700
2022-10-05T00:31:30.938Z,963.1900
2022-10-05T00:31:42.303Z,963.1700
2022-10-05T00:31:53.561Z,963.1700
2022-10-05T00:32:05.080Z,963.1900
2022-10-05T00:32:16.168Z,963.1700
2022-10-05T00:32:27.243Z,963.1500
2022-10-05T00:32:38.298Z,963.1700
2022-10-05T00:32:49.387Z,963.1700
2022-10-05T00:33:00.600Z,963.1700
2022-10-05T00:33:11.796Z,963.1700
2022-10-05T00:33:22.998Z,963.1700
2022-10-05T00:33:34.093Z,963.1700
2022-10-05T00:33:45.158Z,963.1700
2022-10-05T00:33:56.319Z,963.1700
2022-10-05T00:34:07.388Z,963.1700
2022-10-05T00:34:18.436Z,963.1700
2022-10-05T00:34:29.553Z,963.1900
2022-10-05T00:34:40.747Z,963.1700
2022-10-05T00:34:51.969Z,963.1700
2022-10-05T00:35:03.147Z,963.1700
2022-10-05T00:35:14.215Z,963.1700
2022-10-05T00:35:25.277Z,963.1700
2022-10-05T00:35:36.429Z,963.1900
2022-10-05T00:35:47.467Z,963.1900
2022-10-05T00:35:58.507Z,963.1900
2022-10-05T00:36:09.707Z,963.1900
2022-10-05T00:36:20.774Z,963.1900
2022-10-05T00:36:31.814Z,963.1900
2022-10-05T00:36:43.366Z,963.1900
2022-10-05T00:36:54.868Z,963.1900
2022-10-05T00:37:06.038Z,963.1900
2022-10-05T00:37:17.084Z,963.1900
2022-10-05T00:37:28.117Z,963.2100
2022-10-05T00:37:39.307Z,963.2100
2022-10-05T00:37:50.516Z,963.2100
2022-10-05T00:38:01.728Z,963.2300
2022-10-05T00:38:12.908Z,963.2300
2022-10-05T00:38:23.970Z,963.2100
2022-10-05T00:38:35.019Z,963.2100
2022-10-05T00:38:46.188Z,963.2100
2022-10-05T00:38:57.450Z,963.2300
2022-10-05T00:39:08.595Z,963.2100
2022-10-05T00:39:19.639Z,963.2300
2022-10-05T00:39:30.686Z,963.2300
2022-10-05T00:39:41.775Z,963.2300
2022-10-05T00:39:52.840Z,963.2300
2022-10-05T00:40:03.955Z,963.2300
2022-10-05T00:40:15.007Z,963.2300
2022-10-05T00:40:26.058Z,963.2300
2022-10-05T00:40:37.227Z,963.2300
2022-10-05T00:40:48.428Z,963.2100
2022-10-05T00:40:59.634Z,963.2100
2022-10-05T00:41:10.827Z,963.2100
2022-10-05T00:41:21.874Z,963.2100
2022-10-05T00:41:32.907Z,963.2100
2022-10-05T00:41:44.108Z,963.2100
2022-10-05T00:41:55.318Z,963.2100
2022-10-05T00:42:06.508Z,963.2100
2022-10-05T00:42:17.716Z,963.2100
2022-10-05T00:42:28.917Z,963.2100
2022-10-05T00:42:39.971Z,963.2100
2022-10-05T00:42:51.009Z,963.1900
2022-10-05T00:43:02.188Z,963.1900
2022-10-05T00:43:13.388Z,963.1900
2022-10-05T00:43:24.597Z,963.2100
2022-10-05T00:43:35.787Z,963.2100
2022-10-05T00:43:46.998Z,963.2100
2022-10-05T00:43:58.228Z,963.2100
2022-10-05T00:44:09.395Z,963.2300
2022-10-05T00:44:20.588Z,963.2100
2022-10-05T00:44:31.810Z,963.2300
2022-10-05T00:44:42.868Z,963.2300
2022-10-05T00:44:53.932Z,963.2300
2022-10-05T00:45:05.068Z,963.2300
2022-10-05T00:45:16.268Z,963.2100
2022-10-05T00:45:27.454Z,963.2100
2022-10-05T00:45:38.709Z,963.2100
2022-10-05T00:45:49.937Z,963.2300
2022-10-05T00:46:01.106Z,963.2100
2022-10-05T00:46:12.371Z,963.2100
2022-10-05T00:46:23.525Z,963.2100
2022-10-05T00:46:34.668Z,963.2100
2022-10-05T00:46:46.161Z,963.2100
2022-10-05T00:46:57.427Z,963.2100
2022-10-05T00:47:08.597Z,963.2100
2022-10-05T00:47:19.788Z,963.2100
2022-10-05T00:47:30.998Z,963.2100
2022-10-05T00:47:42.198Z,963.2100
2022-10-05T00:47:53.297Z,963.1900
2022-10-05T00:48:04.364Z,963.1900
2022-10-05T00:48:15.467Z,963.1900
2022-10-05T00:48:26.516Z,963.2100
2022-10-05T00:48:37.557Z,963.2100
2022-10-05T00:48:48.749Z,963.2100
2022-10-05T00:48:59.977Z,963.1900
2022-10-05T00:49:11.147Z,963.2100
2022-10-05T00:49:22.350Z,963.2100
2022-10-05T00:49:33.548Z,963.1900
2022-10-05T00:49:44.758Z,963.2100
2022-10-05T00:49:55.948Z,963.2100
2022-10-05T00:50:07.149Z,963.1900
2022-10-05T00:50:18.365Z,963.1900
2022-10-05T00:50:29.409Z,963.1900
2022-10-05T00:50:40.447Z,963.1900
2022-10-05T00:50:51.630Z,963.2100
2022-10-05T00:51:02.829Z,963.1900
2022-10-05T00:51:14.035Z,963.1900
2022-10-05T00:51:25.238Z,963.2100
2022-10-05T00:51:36.284Z,963.2100
2022-10-05T00:51:47.329Z,963.2100
2022-10-05T00:51:58.515Z,963.2100
2022-10-05T00:52:09.558Z,963.2100
2022-10-05T00:52:20.607Z,963.2100
2022-10-05T00:52:31.789Z,963.1900
2022-10-05T00:52:43.001Z,963.1900
2022-10-05T00:52:54.188Z,963.2100
2022-10-05T00:53:05.398Z,963.2100
2022-10-05T00:53:16.451Z,963.2100
2022-10-05T00:53:27.488Z,963.2100
2022-10-05T00:53:38.677Z,963.1900
2022-10-05T00:53:49.718Z,963.2100
2022-10-05T00:54:00.821Z,963.1900
2022-10-05T00:54:15.955Z,963.2100
2022-10-05T00:54:28.918Z,963.1900
2022-10-05T00:54:40.118Z,963.2100
2022-10-05T00:54:51.166Z,963.2100
2022-10-05T00:55:02.248Z,963.1900
2022-10-05T00:55:13.391Z,963.1900
2022-10-05T00:55:24.606Z,963.2100
2022-10-05T00:55:35.790Z,963.1900
2022-10-05T00:55:46.987Z,963.1900
2022-10-05T00:55:58.028Z,963.2100
2022-10-05T00:56:09.068Z,963.1900
2022-10-05T00:56:20.267Z,963.1900
2022-10-05T00:56:31.484Z,963.1900
2022-10-05T00:56:42.891Z,963.1900
2022-10-05T00:56:54.217Z,963.2100
2022-10-05T00:57:05.396Z,963.1900
2022-10-05T00:57:16.589Z,963.2100
2022-10-05T00:57:27.787Z,963.1900
2022-10-05T00:57:38.988Z,963.1900
2022-10-05T00:57:50.031Z,963.2100
2022-10-05T00:58:01.068Z,963.1900
2022-10-05T00:58:12.268Z,963.2100
2022-10-05T00:58:23.467Z,963.2100
2022-10-05T00:58:34.667Z,963.1700
2022-10-05T00:58:45.876Z,963.1900
2022-10-05T00:58:57.083Z,963.1700
2022-10-05T00:59:08.298Z,963.1900
2022-10-05T00:59:19.468Z,963.1900
2022-10-05T00:59:30.678Z,963.1900
2022-10-05T00:59:41.876Z,963.1900
2022-10-05T00:59:52.928Z,963.1900
2022-10-05T01:00:03.976Z,963.1900
2022-10-05T01:00:15.159Z,963.1700
2022-10-05T01:00:26.347Z,963.1700
2022-10-05T01:00:37.558Z,963.1700
2022-10-05T01:00:48.790Z,963.1700
2022-10-05T01:01:00.033Z,963.2100
2022-10-05T01:01:11.246Z,963.1900
2022-10-05T01:01:22.380Z,963.1900
2022-10-05T01:01:33.613Z,963.1900
2022-10-05T01:01:44.748Z,963.1900
2022-10-05T01:01:55.864Z,963.1700
2022-10-05T01:02:06.906Z,963.1900
2022-10-05T01:02:18.112Z,963.1900
2022-10-05T01:02:32.991Z,963.2100
2022-10-05T01:02:46.257Z,963.2100
2022-10-05T01:02:57.348Z,963.1900
2022-10-05T01:03:08.387Z,963.1900
2022-10-05T01:03:19.481Z,963.1900
2022-10-05T01:03:30.669Z,963.1700
2022-10-05T01:03:41.869Z,963.1700
2022-10-05T01:03:52.946Z,963.1700
2022-10-05T01:04:04.010Z,963.1900
2022-10-05T01:04:15.078Z,963.1700
2022-10-05T01:04:26.137Z,963.1700
2022-10-05T01:04:37.228Z,963.1900
2022-10-05T01:04:48.427Z,963.1700
2022-10-05T01:04:59.638Z,963.1500
2022-10-05T01:05:10.836Z,963.1700
2022-10-05T01:05:21.887Z,963.1700
2022-10-05T01:05:32.957Z,963.1700
2022-10-05T01:05:44.116Z,963.1500
2022-10-05T01:05:55.317Z,963.1500
2022-10-05T01:06:06.523Z,963.1700
2022-10-05T01:06:17.708Z,963.1700
2022-10-05T01:06:28.910Z,963.1700
2022-10-05T01:06:40.107Z,963.1500
2022-10-05T01:06:51.157Z,963.1300
2022-10-05T01:07:02.211Z,963.1300
2022-10-05T01:07:13.390Z,963.1100
2022-10-05T01:07:24.447Z,963.1500
2022-10-05T01:07:35.495Z,963.1300
2022-10-05T01:07:46.669Z,963.1300
2022-10-05T01:07:57.878Z,963.1300
2022-10-05T01:08:09.077Z,963.1300
2022-10-05T01:08:20.267Z,963.1100
2022-10-05T01:08:31.317Z,963.1100
2022-10-05T01:08:42.376Z,963.0900
2022-10-05T01:08:53.548Z,963.1300
2022-10-05T01:09:04.781Z,963.0900
2022-10-05T01:09:15.967Z,963.0900
2022-10-05T01:09:27.151Z,963.0900
2022-10-05T01:09:38.365Z,963.0900
2022-10-05T01:09:49.548Z,963.0900
2022-10-05T01:10:00.771Z,963.0900
2022-10-05T01:10:11.947Z,963.1100
2022-10-05T01:10:23.156Z,963.1100
2022-10-05T01:10:34.204Z,963.1100
2022-10-05T01:10:45.247Z,963.1100
2022-10-05T01:10:56.427Z,963.1100
2022-10-05T01:11:07.637Z,963.1100
2022-10-05T01:11:18.829Z,963.1100
2022-10-05T01:11:30.027Z,963.1100
2022-10-05T01:11:41.245Z,963.0900
2022-10-05T01:11:52.428Z,963.0900
2022-10-05T01:12:03.627Z,963.0700
2022-10-05T01:12:14.827Z,963.0900
2022-10-05T01:12:26.038Z,963.0700
2022-10-05T01:12:37.078Z,963.0900
2022-10-05T01:12:48.119Z,963.0700
2022-10-05T01:12:59.310Z,963.0700
2022-10-05T01:13:10.519Z,963.0900
2022-10-05T01:13:21.709Z,963.0900
2022-10-05T01:13:32.916Z,963.0700
2022-10-05T01:13:44.108Z,963.0700
2022-10-05T01:13:55.325Z,963.0700
2022-10-05T01:14:06.515Z,963.0700
2022-10-05T01:14:17.739Z,963.0700
2022-10-05T01:14:28.907Z,963.0700
2022-10-05T01:14:39.965Z,963.0900
2022-10-05T01:14:51.009Z,963.0700
2022-10-05T01:15:02.188Z,963.0500
2022-10-05T01:15:13.404Z,963.0700
2022-10-05T01:15:24.600Z,963.0700
2022-10-05T01:15:35.791Z,963.0700
2022-10-05T01:15:46.842Z,963.0700
2022-10-05T01:15:57.886Z,963.0700
2022-10-05T01:16:09.170Z,963.0900
2022-10-05T01:16:20.356Z,963.0900
2022-10-05T01:16:31.548Z,963.0700
2022-10-05T01:16:42.842Z,963.0500
2022-10-05T01:16:54.342Z,963.0500
2022-10-05T01:17:05.452Z,963.0500
2022-10-05T01:17:16.587Z,963.0500
2022-10-05T01:17:27.789Z,963.0500
2022-10-05T01:17:39.010Z,963.0500
2022-10-05T01:17:50.194Z,963.0700
2022-10-05T01:18:01.391Z,963.0500
2022-10-05T01:18:12.609Z,963.0500
2022-10-05T01:18:23.787Z,963.0500
2022-10-05T01:18:34.989Z,963.0500
2022-10-05T01:18:46.205Z,963.0500
2022-10-05T01:18:57.387Z,963.0500
2022-10-05T01:19:08.599Z,963.0500
2022-10-05T01:19:19.678Z,963.0500
2022-10-05T01:19:30.746Z,963.0100
2022-10-05T01:19:41.880Z,963.0500
2022-10-05T01:19:53.074Z,963.0500
2022-10-05T01:20:04.277Z,963.0300
2022-10-05T01:20:15.470Z,963.0300
2022-10-05T01:20:26.692Z,963.0300
2022-10-05T01:20:37.876Z,963.0300
2022-10-05T01:20:48.917Z,963.0300
2022-10-05T01:20:59.965Z,963.0100
2022-10-05T01:21:11.147Z,963.0100
2022-10-05T01:21:22.349Z,963.0100
2022-10-05T01:21:33.564Z,963.0100
2022-10-05T01:21:44.757Z,963.0100
2022-10-05T01:21:55.787Z,963.0100
2022-10-05T01:22:06.845Z,963.0100
2022-10-05T01:22:18.040Z,963.0100
2022-10-05T01:22:29.249Z,963.0100
2022-10-05T01:22:40.335Z,962.9900
2022-10-05T01:22:51.402Z,962.9900
2022-10-05T01:23:02.526Z,962.9900
2022-10-05T01:23:13.716Z,962.9900
2022-10-05T01:23:24.767Z,962.9700
2022-10-05T01:23:35.845Z,962.9500
2022-10-05T01:23:46.988Z,962.9700
2022-10-05T01:23:58.198Z,962.9500
2022-10-05T01:24:09.265Z,962.9500
2022-10-05T01:24:20.308Z,962.9700
2022-10-05T01:24:31.477Z,962.9500
2022-10-05T01:24:42.686Z,962.9500
2022-10-05T01:24:53.868Z,962.9500
2022-10-05T01:25:05.171Z,962.9500
2022-10-05T01:25:16.267Z,962.9300
2022-10-05T01:25:27.309Z,962.9300
2022-10-05T01:25:38.348Z,962.9500
2022-10-05T01:25:49.547Z,962.9300
2022-10-05T01:26:00.748Z,962.9300
2022-10-05T01:26:11.788Z,962.9300
2022-10-05T01:26:22.829Z,962.9300
2022-10-05T01:26:34.046Z,962.9300
2022-10-05T01:26:45.496Z,962.9300
2022-10-05T01:26:56.788Z,962.9300
2022-10-05T01:27:07.960Z,962.9300
2022-10-05T01:27:19.157Z,962.9200
2022-10-05T01:27:30.207Z,962.9200
2022-10-05T01:27:41.277Z,962.8800
2022-10-05T01:27:52.490Z,962.8600
2022-10-05T01:28:03.666Z,962.8600
2022-10-05T01:28:14.787Z,962.8800
2022-10-05T01:28:25.964Z,962.8600
2022-10-05T01:28:37.090Z,962.8800
2022-10-05T01:28:48.110Z,962.8600
2022-10-05T01:28:59.308Z,962.9000
2022-10-05T01:29:10.528Z,962.9000
2022-10-05T01:29:21.587Z,962.8800
2022-10-05T01:29:32.668Z,962.8800
2022-10-05T01:29:43.727Z,962.8800
2022-10-05T01:29:54.778Z,962.8800
2022-10-05T01:30:05.868Z,962.8800
2022-10-05T01:30:17.075Z,962.8800
2022-10-05T01:30:28.278Z,962.8800
2022-10-05T01:30:39.477Z,962.8200
2022-10-05T01:30:50.676Z,962.8200
2022-10-05T01:31:01.876Z,962.8200
2022-10-05T01:31:13.149Z,962.8200
2022-10-05T01:31:24.331Z,962.8200
2022-10-05T01:31:35.565Z,962.8200
2022-10-05T01:31:46.738Z,962.8400
2022-10-05T01:31:57.897Z,962.8200
2022-10-05T01:32:09.075Z,962.8200
2022-10-05T01:32:20.267Z,962.8600
2022-10-05T01:32:31.478Z,962.8600
2022-10-05T01:32:42.667Z,962.8600
2022-10-05T01:32:53.725Z,962.8400
2022-10-05T01:33:04.758Z,962.8600
2022-10-05T01:33:15.825Z,962.8400
2022-10-05T01:33:26.890Z,962.8400
2022-10-05T01:33:38.044Z,962.8600
2022-10-05T01:33:49.227Z,962.8400
2022-10-05T01:34:00.275Z,962.8400
2022-10-05T01:34:11.772Z,962.8600
2022-10-05T01:34:22.943Z,962.8400
2022-10-05T01:34:34.035Z,962.8400
2022-10-05T01:34:45.237Z,962.8600
2022-10-05T01:34:56.440Z,962.8400
2022-10-05T01:35:07.638Z,962.8600
2022-10-05T01:35:18.827Z,962.8600
2022-10-05T01:35:30.037Z,962.8600
2022-10-05T01:35:41.086Z,962.8600
2022-10-05T01:35:52.149Z,962.8800
2022-10-05T01:36:03.198Z,962.8600
2022-10-05T01:36:14.257Z,962.8800
2022-10-05T01:36:25.389Z,962.8600
2022-10-05T01:36:36.598Z,962.8600
2022-10-05T01:36:48.334Z,962.8600
2022-10-05T01:36:59.665Z,962.8600
2022-10-05T01:37:10.827Z,962.8600
2022-10-05T01:37:22.039Z,962.8600
2022-10-05T01:37:33.235Z,962.8600
2022-10-05T01:37:44.436Z,962.8600
2022-10-05T01:37:55.628Z,962.8600
2022-10-05T01:38:06.837Z,962.8600
2022-10-05T01:38:18.028Z,962.8800
2022-10-05T01:38:29.247Z,962.8600
2022-10-05T01:38:40.446Z,962.8400
2022-10-05T01:38:51.628Z,962.8600
2022-10-05T01:39:02.686Z,962.8600
2022-10-05T01:39:13.772Z,962.8200
2022-10-05T01:39:24.958Z,962.8200
2022-10-05T01:39:36.108Z,962.8200
2022-10-05T01:39:47.318Z,962.8400
2022-10-05T01:39:58.512Z,962.8400
2022-10-05T01:40:09.707Z,962.8600
2022-10-05T01:40:20.918Z,962.8600
2022-10-05T01:40:32.117Z,962.8400
2022-10-05T01:40:43.307Z,962.8400
2022-10-05T01:40:54.517Z,962.8400
2022-10-05T01:41:05.566Z,962.8400
2022-10-05T01:41:16.628Z,962.8600
2022-10-05T01:41:27.791Z,962.8600
2022-10-05T01:41:39.006Z,962.8400
2022-10-05T01:41:50.188Z,962.9000
2022-10-05T01:42:01.387Z,962.9000
2022-10-05T01:42:12.596Z,962.9000
2022-10-05T01:42:23.789Z,962.9000
2022-10-05T01:42:34.997Z,962.9000
2022-10-05T01:42:46.202Z,962.9200
2022-10-05T01:42:57.388Z,962.9200
2022-10-05T01:43:08.437Z,962.9200
2022-10-05T01:43:19.507Z,962.9200
2022-10-05T01:43:30.667Z,962.9000
2022-10-05T01:43:41.884Z,962.9000
2022-10-05T01:43:53.078Z,962.9200
2022-10-05T01:44:04.267Z,962.9200
2022-10-05T01:44:15.467Z,962.9300
2022-10-05T01:44:26.703Z,962.9300
2022-10-05T01:44:37.869Z,962.9300
2022-10-05T01:44:49.079Z,962.9300
2022-10-05T01:45:00.285Z,962.9300
2022-10-05T01:45:11.318Z,962.9300
2022-10-05T01:45:22.369Z,962.9300
2022-10-05T01:45:33.575Z,962.9300
2022-10-05T01:45:44.791Z,962.9500
2022-10-05T01:45:56.043Z,962.9300
2022-10-05T01:46:07.222Z,962.9300
2022-10-05T01:46:18.420Z,962.9500
2022-10-05T01:46:29.556Z,962.9300
2022-10-05T01:46:40.752Z,962.9500
2022-10-05T01:46:51.947Z,962.9500
2022-10-05T01:47:03.154Z,962.9500
2022-10-05T01:47:14.206Z,962.9500
2022-10-05T01:47:25.270Z,962.9500
2022-10-05T01:47:36.429Z,962.9500
2022-10-05T01:47:47.641Z,962.9500
2022-10-05T01:47:58.827Z,962.9700
2022-10-05T01:48:10.038Z,962.9700
2022-10-05T01:48:21.228Z,962.9700
2022-10-05T01:48:32.446Z,962.9700
2022-10-05T01:48:43.637Z,962.9700
2022-10-05T01:48:54.828Z,962.9700
2022-10-05T01:49:06.028Z,962.9500
2022-10-05T01:49:17.069Z,962.9700
2022-10-05T01:49:28.138Z,962.9900
2022-10-05T01:49:39.315Z,962.9700
2022-10-05T01:49:50.507Z,962.9900
2022-10-05T01:50:01.721Z,962.9900
2022-10-05T01:50:12.930Z,962.9900
2022-10-05T01:50:23.959Z,962.9700
2022-10-05T01:50:35.007Z,962.9700
2022-10-05T01:50:46.189Z,962.9700
2022-10-05T01:50:57.388Z,962.9900
2022-10-05T01:51:08.605Z,962.9900
2022-10-05T01:51:19.794Z,962.9900
2022-10-05T01:51:30.996Z,962.9900
2022-10-05T01:51:42.187Z,962.9900
2022-10-05T01:51:53.396Z,963.0100
2022-10-05T01:52:04.610Z,963.0100
2022-10-05T01:52:15.787Z,963.0100
2022-10-05T01:52:26.829Z,963.0100
2022-10-05T01:52:37.868Z,963.0100
2022-10-05T01:52:49.079Z,963.0100
2022-10-05T01:53:00.268Z,963.0100
2022-10-05T01:53:11.467Z,963.0100
2022-10-05T01:53:22.679Z,963.0100
2022-10-05T01:53:33.867Z,963.0100
2022-10-05T01:53:45.085Z,963.0100
2022-10-05T01:53:56.268Z,963.0100
2022-10-05T01:54:07.478Z,963.0100
2022-10-05T01:54:18.694Z,962.9700
2022-10-05T01:54:29.738Z,962.9900
2022-10-05T01:54:40.816Z,962.9700
2022-10-05T01:54:51.968Z,962.9900
2022-10-05T01:55:03.148Z,962.9900
2022-10-05T01:55:14.347Z,962.9900
2022-10-05T01:55:25.549Z,962.9900
2022-10-05T01:55:36.757Z,962.9900
2022-10-05T01:55:47.947Z,962.9900
2022-10-05T01:55:59.162Z,962.9900
2022-10-05T01:56:10.347Z,962.9900
2022-10-05T01:56:21.559Z,962.9900
2022-10-05T01:56:32.597Z,962.9700
2022-10-05T01:56:43.955Z,962.9900
2022-10-05T01:56:55.206Z,963.0100
2022-10-05T01:57:06.347Z,963.0100
2022-10-05T01:57:17.561Z,962.9900
2022-10-05T01:57:28.608Z,962.9900
2022-10-05T01:57:39.680Z,962.9900
2022-10-05T01:57:50.845Z,962.9700
2022-10-05T01:58:01.897Z,962.9900
2022-10-05T01:58:12.954Z,962.9900
2022-10-05T01:58:24.108Z,962.9700
2022-10-05T01:58:35.148Z,962.9700
2022-10-05T01:58:46.188Z,963.0100
2022-10-05T01:58:57.397Z,963.0100
2022-10-05T01:59:08.587Z,963.0100
2022-10-05T01:59:19.804Z,962.9700
2022-10-05T01:59:31.018Z,962.9700
2022-10-05T01:59:42.075Z,962.9900
2022-10-05T01:59:53.154Z,962.9900
2022-10-05T02:00:04.268Z,962.9900
2022-10-05T02:00:15.467Z,962.9700
2022-10-05T02:00:26.668Z,962.9900
2022-10-05T02:00:37.871Z,962.9700
2022-10-05T02:00:49.133Z,962.9700
2022-10-05T02:01:00.382Z,962.9900
2022-10-05T02:01:11.502Z,963.0100
2022-10-05T02:01:22.749Z,962.9900
2022-10-05T02:01:33.969Z,962.9900
2022-10-05T02:01:45.027Z,962.9700
2022-10-05T02:01:56.170Z,962.9700
2022-10-05T02:02:07.316Z,962.9700
2022-10-05T02:02:18.404Z,962.9700
2022-10-05T02:02:29.676Z,962.9700
2022-10-05T02:02:40.770Z,962.9500
2022-10-05T02:02:51.797Z,962.9500
2022-10-05T02:03:02.828Z,962.9500
2022-10-05T02:03:14.037Z,962.9300
2022-10-05T02:03:25.235Z,962.9500
2022-10-05T02:03:36.436Z,962.9500
2022-10-05T02:03:47.628Z,962.9500
2022-10-05T02:03:58.841Z,962.9500
2022-10-05T02:04:10.035Z,962.9300
2022-10-05T02:04:43.624Z,962.9700
2022-10-05T02:05:00.941Z,962.9300
2022-10-05T02:05:03.138Z,962.9200
2022-10-05T02:05:12.179Z,962.9300
2022-10-05T02:05:23.317Z,962.9300
2022-10-05T02:05:34.509Z,962.9200
2022-10-05T02:05:45.548Z,962.9300
2022-10-05T02:05:56.605Z,962.9200
2022-10-05T02:06:07.798Z,962.9200
2022-10-05T02:06:18.987Z,962.9000
2022-10-05T02:06:30.196Z,962.9200
2022-10-05T02:06:41.388Z,962.9200
2022-10-05T02:06:52.429Z,962.9200
2022-10-05T02:07:03.468Z,962.9200
2022-10-05T02:07:14.686Z,962.9000
2022-10-05T02:07:25.788Z,962.9300
2022-10-05T02:07:36.847Z,962.9500
2022-10-05T02:07:47.952Z,962.9300
2022-10-05T02:07:58.998Z,962.9300
2022-10-05T02:08:10.037Z,962.9300
2022-10-05T02:08:21.228Z,962.9300
2022-10-05T02:08:32.428Z,962.9300
2022-10-05T02:08:43.647Z,962.9300
2022-10-05T02:08:54.827Z,962.8800
2022-10-05T02:09:06.039Z,962.9000
2022-10-05T02:09:17.230Z,962.9200
2022-10-05T02:09:28.451Z,962.9200
2022-10-05T02:09:39.657Z,962.9000
2022-10-05T02:09:50.836Z,962.9000
2022-10-05T02:10:01.888Z,962.9000
2022-10-05T02:10:13.017Z,962.9000
2022-10-05T02:10:24.109Z,962.9000
2022-10-05T02:10:35.317Z,962.9000
2022-10-05T02:10:46.531Z,962.9000
2022-10-05T02:10:57.708Z,962.9000
2022-10-05T02:11:08.907Z,962.9000
2022-10-05T02:11:20.110Z,962.8800
2022-10-05T02:11:31.307Z,962.8800